CMB502 OKKK-ETAR
Flight info
| Callsign | CMB502 |
|---|---|
| Flight time | N/A |
| Altitude | 40000 |
| Route | KFR L550 BOSID DCT DATOK L550 GENIV L324 LAKTO DCT AKINA UN133 ATFIR N133 LOMOS DCT SODGO DCT DEGET DCT PATAK DCT LALES DCT BNO DCT ELMEK DCT RAPET DCT KODUK DCT XIDOD |
| Aircraft | B77L/H-SDE1E2E3FGHIJ2J3J4J5M1RWXY/LB1D1 |
Departure
| Time | 2026-04-27 17:47 |
|---|---|
| Airport | Kuwait International Airport (OKKK) |
Arrival
| Time | N/A |
|---|---|
| Airport | Ramstein Air Base (ETAR) |
| Time | Latitude | Longitude | Altitude | Speed | Heading |
|---|---|---|---|---|---|
| 2026-04-27 16:58 | 29.23901 | 47.97019 | 219 ft | 0 kts | 13° |
| 2026-04-27 17:32 | 29.23905 | 47.97016 | 220 ft | 3 kts | 358° |
| 2026-04-27 17:32 | 29.23893 | 47.97013 | 220 ft | 3 kts | 30° |
| 2026-04-27 17:33 | 29.23875 | 47.97003 | 220 ft | 3 kts | 17° |
| 2026-04-27 17:33 | 29.23856 | 47.96998 | 220 ft | 3 kts | 2° |
| 2026-04-27 17:33 | 29.23837 | 47.96999 | 220 ft | 3 kts | 349° |
| 2026-04-27 17:33 | 29.23817 | 47.97004 | 220 ft | 3 kts | 341° |
| 2026-04-27 17:34 | 29.23805 | 47.97009 | 220 ft | 1 kts | 340° |
| 2026-04-27 17:34 | 29.23802 | 47.97010 | 220 ft | 0 kts | 340° |
| 2026-04-27 17:42 | 29.23803 | 47.97010 | 220 ft | 1 kts | 340° |
| 2026-04-27 17:42 | 29.23833 | 47.96983 | 220 ft | 6 kts | 284° |
| 2026-04-27 17:42 | 29.23809 | 47.96946 | 220 ft | 6 kts | 215° |
| 2026-04-27 17:42 | 29.23776 | 47.96917 | 220 ft | 6 kts | 226° |
| 2026-04-27 17:43 | 29.23751 | 47.96870 | 220 ft | 10 kts | 243° |
| 2026-04-27 17:43 | 29.23719 | 47.96790 | 220 ft | 11 kts | 245° |
| 2026-04-27 17:43 | 29.23689 | 47.96716 | 220 ft | 10 kts | 245° |
| 2026-04-27 17:43 | 29.23663 | 47.96646 | 220 ft | 9 kts | 265° |
| 2026-04-27 17:44 | 29.23700 | 47.96591 | 220 ft | 9 kts | 327° |
| 2026-04-27 17:44 | 29.23755 | 47.96558 | 220 ft | 8 kts | 334° |
| 2026-04-27 17:44 | 29.23807 | 47.96530 | 220 ft | 8 kts | 335° |
| 2026-04-27 17:44 | 29.23862 | 47.96501 | 220 ft | 12 kts | 335° |
| 2026-04-27 17:45 | 29.23966 | 47.96447 | 220 ft | 17 kts | 335° |
| 2026-04-27 17:45 | 29.24056 | 47.96399 | 220 ft | 10 kts | 335° |
| 2026-04-27 17:45 | 29.24094 | 47.96361 | 220 ft | 5 kts | 266° |
| 2026-04-27 17:45 | 29.24082 | 47.96310 | 220 ft | 10 kts | 253° |
| 2026-04-27 17:46 | 29.24051 | 47.96232 | 220 ft | 11 kts | 240° |
| 2026-04-27 17:46 | 29.23992 | 47.96195 | 220 ft | 10 kts | 173° |
| 2026-04-27 17:46 | 29.23815 | 47.96278 | 220 ft | 66 kts | 154° |
| 2026-04-27 17:46 | 29.23098 | 47.96659 | 221 ft | 158 kts | 154° |
| 2026-04-27 17:47 | 29.21917 | 47.97291 | 536 ft | 206 kts | 154° |
| 2026-04-27 17:47 | 29.21047 | 47.97753 | 1278 ft | 209 kts | 154° |
| 2026-04-27 17:47 | 29.19270 | 47.98698 | 2854 ft | 218 kts | 154° |
| 2026-04-27 17:47 | 29.17835 | 47.99460 | 3651 ft | 239 kts | 154° |
| 2026-04-27 17:48 | 29.16301 | 48.00274 | 3984 ft | 246 kts | 155° |
| 2026-04-27 17:48 | 29.14730 | 48.01099 | 3981 ft | 251 kts | 158° |
| 2026-04-27 17:48 | 29.13001 | 48.01580 | 3907 ft | 261 kts | 179° |
| 2026-04-27 17:48 | 29.11229 | 48.01154 | 4000 ft | 263 kts | 200° |
| 2026-04-27 17:49 | 29.09602 | 48.00183 | 4046 ft | 265 kts | 212° |
| 2026-04-27 17:49 | 29.08108 | 47.98957 | 4430 ft | 267 kts | 214° |
| 2026-04-27 17:49 | 29.06602 | 47.97687 | 5632 ft | 270 kts | 215° |
| 2026-04-27 17:49 | 29.05086 | 47.96377 | 6921 ft | 275 kts | 215° |
| 2026-04-27 17:50 | 29.03554 | 47.95042 | 8169 ft | 278 kts | 216° |
| 2026-04-27 17:50 | 29.00610 | 47.92037 | 10438 ft | 289 kts | 217° |
| 2026-04-27 17:50 | 28.98995 | 47.90594 | 11421 ft | 301 kts | 217° |
| 2026-04-27 17:51 | 28.97282 | 47.89103 | 12436 ft | 318 kts | 217° |
| 2026-04-27 17:51 | 28.95455 | 47.87544 | 13354 ft | 337 kts | 217° |
| 2026-04-27 17:51 | 28.93521 | 47.85898 | 14206 ft | 357 kts | 217° |
| 2026-04-27 17:51 | 28.91486 | 47.84165 | 15167 ft | 372 kts | 217° |
| 2026-04-27 17:52 | 28.89376 | 47.82363 | 16202 ft | 384 kts | 218° |
| 2026-04-27 17:52 | 28.87230 | 47.80519 | 17338 ft | 390 kts | 218° |
| 2026-04-27 17:52 | 28.85038 | 47.78647 | 18475 ft | 395 kts | 218° |
| 2026-04-27 17:52 | 28.83576 | 47.77402 | 19241 ft | 398 kts | 218° |
| 2026-04-27 17:53 | 28.80583 | 47.74856 | 20760 ft | 404 kts | 219° |
| 2026-04-27 17:53 | 28.78323 | 47.72937 | 21826 ft | 407 kts | 219° |
| 2026-04-27 17:53 | 28.76040 | 47.70997 | 22828 ft | 411 kts | 220° |
| 2026-04-27 17:53 | 28.73735 | 47.69040 | 23732 ft | 416 kts | 220° |
| 2026-04-27 17:54 | 28.71403 | 47.67060 | 24590 ft | 420 kts | 221° |
| 2026-04-27 17:54 | 28.69081 | 47.65027 | 25435 ft | 420 kts | 225° |
| 2026-04-27 17:54 | 28.67209 | 47.62511 | 26223 ft | 418 kts | 241° |
| 2026-04-27 17:54 | 28.66148 | 47.59473 | 26979 ft | 423 kts | 257° |
| 2026-04-27 17:55 | 28.65810 | 47.56084 | 27699 ft | 430 kts | 266° |
| 2026-04-27 17:55 | 28.65769 | 47.52662 | 28438 ft | 435 kts | 268° |
| 2026-04-27 17:55 | 28.65886 | 47.49210 | 29278 ft | 438 kts | 270° |
| 2026-04-27 17:55 | 28.66133 | 47.45777 | 30038 ft | 443 kts | 271° |
| 2026-04-27 17:56 | 28.66449 | 47.42271 | 30728 ft | 447 kts | 272° |
| 2026-04-27 17:56 | 28.66764 | 47.38745 | 31585 ft | 445 kts | 271° |
| 2026-04-27 17:56 | 28.67063 | 47.35263 | 32606 ft | 440 kts | 271° |
| 2026-04-27 17:56 | 28.67349 | 47.31814 | 33557 ft | 435 kts | 271° |
| 2026-04-27 17:57 | 28.67628 | 47.28398 | 34440 ft | 431 kts | 271° |
| 2026-04-27 17:57 | 28.67903 | 47.25017 | 35199 ft | 429 kts | 271° |
| 2026-04-27 17:57 | 28.68196 | 47.21646 | 35907 ft | 427 kts | 272° |
| 2026-04-27 17:57 | 28.68495 | 47.18299 | 36650 ft | 423 kts | 272° |
| 2026-04-27 17:58 | 28.68774 | 47.14974 | 37316 ft | 420 kts | 271° |
| 2026-04-27 17:58 | 28.69041 | 47.11676 | 37974 ft | 417 kts | 271° |
| 2026-04-27 17:58 | 28.69302 | 47.08390 | 38575 ft | 415 kts | 271° |
| 2026-04-27 17:58 | 28.69559 | 47.05125 | 39151 ft | 413 kts | 271° |
| 2026-04-27 17:59 | 28.69814 | 47.01877 | 39632 ft | 413 kts | 271° |
| 2026-04-27 17:59 | 28.70070 | 46.98616 | 39791 ft | 414 kts | 271° |
| 2026-04-27 17:59 | 28.70580 | 46.92097 | 39786 ft | 412 kts | 271° |
| 2026-04-27 18:00 | 28.71100 | 46.85596 | 39785 ft | 412 kts | 272° |
| 2026-04-27 18:00 | 28.71834 | 46.79125 | 39785 ft | 413 kts | 274° |
| 2026-04-27 18:01 | 28.72635 | 46.72646 | 39786 ft | 413 kts | 274° |
| 2026-04-27 18:01 | 28.73409 | 46.66158 | 39788 ft | 413 kts | 273° |
| 2026-04-27 18:02 | 28.74039 | 46.60762 | 39787 ft | 413 kts | 273° |
| 2026-04-27 18:02 | 28.74793 | 46.54229 | 39788 ft | 413 kts | 273° |
| 2026-04-27 18:03 | 28.75540 | 46.47735 | 39788 ft | 413 kts | 273° |
| 2026-04-27 18:03 | 28.76321 | 46.41242 | 39787 ft | 413 kts | 273° |
| 2026-04-27 18:04 | 28.77086 | 46.34744 | 39782 ft | 414 kts | 273° |
| 2026-04-27 18:04 | 28.77840 | 46.28228 | 39782 ft | 415 kts | 273° |
| 2026-04-27 18:05 | 28.78583 | 46.21749 | 39782 ft | 415 kts | 273° |
| 2026-04-27 18:05 | 28.79330 | 46.15191 | 39782 ft | 415 kts | 273° |
| 2026-04-27 18:06 | 28.80063 | 46.08712 | 39782 ft | 415 kts | 273° |
| 2026-04-27 18:06 | 28.80798 | 46.02193 | 39782 ft | 415 kts | 273° |
| 2026-04-27 18:07 | 28.81529 | 45.95671 | 39782 ft | 415 kts | 273° |
| 2026-04-27 18:07 | 28.82259 | 45.89132 | 39781 ft | 417 kts | 272° |
| 2026-04-27 18:08 | 28.82988 | 45.82571 | 39781 ft | 417 kts | 272° |
| 2026-04-27 18:08 | 28.83714 | 45.76011 | 39781 ft | 416 kts | 272° |
| 2026-04-27 18:09 | 28.84434 | 45.69466 | 39780 ft | 416 kts | 272° |
| 2026-04-27 18:09 | 28.85156 | 45.62886 | 39779 ft | 416 kts | 272° |
| 2026-04-27 18:10 | 28.85870 | 45.56332 | 39779 ft | 416 kts | 272° |
| 2026-04-27 18:10 | 28.86582 | 45.49781 | 39777 ft | 416 kts | 272° |
| 2026-04-27 18:11 | 28.87291 | 45.43222 | 39776 ft | 416 kts | 272° |
| 2026-04-27 18:11 | 28.87997 | 45.36664 | 39775 ft | 416 kts | 272° |
| 2026-04-27 18:12 | 28.88700 | 45.30104 | 39775 ft | 417 kts | 272° |
| 2026-04-27 18:12 | 28.89400 | 45.23537 | 39773 ft | 417 kts | 272° |
| 2026-04-27 18:13 | 28.90093 | 45.17010 | 39772 ft | 417 kts | 272° |
| 2026-04-27 18:13 | 28.90790 | 45.10409 | 39771 ft | 416 kts | 272° |
| 2026-04-27 18:14 | 28.91479 | 45.03850 | 39777 ft | 416 kts | 272° |
| 2026-04-27 18:14 | 28.92166 | 44.97289 | 39775 ft | 416 kts | 272° |
| 2026-04-27 18:15 | 28.92849 | 44.90726 | 39773 ft | 417 kts | 272° |
| 2026-04-27 18:15 | 28.93529 | 44.84157 | 39771 ft | 417 kts | 272° |
| 2026-04-27 18:16 | 28.94203 | 44.77629 | 39770 ft | 417 kts | 271° |
| 2026-04-27 18:16 | 28.94878 | 44.71056 | 39768 ft | 417 kts | 271° |
| 2026-04-27 18:17 | 28.95550 | 44.64470 | 39766 ft | 417 kts | 271° |
| 2026-04-27 18:17 | 28.96218 | 44.57904 | 39763 ft | 417 kts | 271° |
| 2026-04-27 18:18 | 28.96882 | 44.51329 | 39761 ft | 417 kts | 271° |
| 2026-04-27 18:18 | 28.97544 | 44.44756 | 39759 ft | 417 kts | 271° |
| 2026-04-27 18:19 | 28.98202 | 44.38180 | 39754 ft | 417 kts | 271° |
| 2026-04-27 18:19 | 28.98858 | 44.31598 | 39750 ft | 417 kts | 271° |
| 2026-04-27 18:20 | 28.99512 | 44.25006 | 39749 ft | 418 kts | 271° |
| 2026-04-27 18:20 | 29.00161 | 44.18421 | 39747 ft | 418 kts | 271° |
| 2026-04-27 18:21 | 29.00809 | 44.11826 | 39745 ft | 418 kts | 271° |
| 2026-04-27 18:21 | 29.01453 | 44.05228 | 39743 ft | 418 kts | 271° |
| 2026-04-27 18:22 | 29.02093 | 43.98639 | 39742 ft | 418 kts | 271° |
| 2026-04-27 18:22 | 29.02731 | 43.92029 | 39740 ft | 419 kts | 271° |
| 2026-04-27 18:23 | 29.03367 | 43.85413 | 39742 ft | 420 kts | 271° |
| 2026-04-27 18:23 | 29.04001 | 43.78784 | 39744 ft | 419 kts | 271° |
| 2026-04-27 18:24 | 29.04632 | 43.72155 | 39743 ft | 419 kts | 271° |
| 2026-04-27 18:24 | 29.05258 | 43.65534 | 39742 ft | 419 kts | 271° |
| 2026-04-27 18:25 | 29.05882 | 43.58905 | 39741 ft | 419 kts | 271° |
| 2026-04-27 18:25 | 29.06502 | 43.52284 | 39741 ft | 419 kts | 271° |
| 2026-04-27 18:26 | 29.07119 | 43.45656 | 39740 ft | 419 kts | 271° |
| 2026-04-27 18:26 | 29.07733 | 43.39029 | 39742 ft | 419 kts | 271° |
| 2026-04-27 18:27 | 29.08344 | 43.32396 | 39743 ft | 420 kts | 271° |
| 2026-04-27 18:27 | 29.08952 | 43.25757 | 39743 ft | 421 kts | 270° |
| 2026-04-27 18:28 | 29.09559 | 43.19103 | 39744 ft | 420 kts | 270° |
| 2026-04-27 18:28 | 29.10161 | 43.12454 | 39746 ft | 420 kts | 270° |
| 2026-04-27 18:29 | 29.10759 | 43.05813 | 39747 ft | 420 kts | 270° |
| 2026-04-27 18:29 | 29.11355 | 42.99165 | 39749 ft | 421 kts | 270° |
| 2026-04-27 18:30 | 29.11949 | 42.92503 | 39751 ft | 421 kts | 270° |
| 2026-04-27 18:30 | 29.12539 | 42.85843 | 39754 ft | 420 kts | 270° |
| 2026-04-27 18:31 | 29.13124 | 42.79197 | 39756 ft | 420 kts | 270° |
| 2026-04-27 18:31 | 29.13706 | 42.72556 | 39759 ft | 420 kts | 270° |
| 2026-04-27 18:32 | 29.14285 | 42.65905 | 39762 ft | 420 kts | 270° |
| 2026-04-27 18:32 | 29.14861 | 42.59251 | 39765 ft | 421 kts | 270° |
| 2026-04-27 18:33 | 29.15434 | 42.52590 | 39769 ft | 421 kts | 270° |
| 2026-04-27 18:33 | 29.16004 | 42.45930 | 39771 ft | 420 kts | 270° |
| 2026-04-27 18:34 | 29.16570 | 42.39280 | 39775 ft | 420 kts | 270° |
| 2026-04-27 18:34 | 29.17134 | 42.32610 | 39778 ft | 421 kts | 270° |
| 2026-04-27 18:35 | 29.17695 | 42.25934 | 39782 ft | 422 kts | 270° |
| 2026-04-27 18:35 | 29.18253 | 42.19256 | 39784 ft | 422 kts | 270° |
| 2026-04-27 18:36 | 29.18807 | 42.12576 | 39787 ft | 421 kts | 270° |
| 2026-04-27 18:36 | 29.19358 | 42.05903 | 39789 ft | 421 kts | 270° |
| 2026-04-27 18:37 | 29.19906 | 41.99225 | 39792 ft | 421 kts | 270° |
| 2026-04-27 18:37 | 29.20451 | 41.92540 | 39794 ft | 423 kts | 270° |
| 2026-04-27 18:38 | 29.20994 | 41.85835 | 39796 ft | 423 kts | 270° |
| 2026-04-27 18:38 | 29.21534 | 41.79133 | 39812 ft | 423 kts | 270° |
| 2026-04-27 18:39 | 29.22071 | 41.72422 | 39819 ft | 423 kts | 270° |
| 2026-04-27 18:39 | 29.22604 | 41.65717 | 39822 ft | 423 kts | 270° |
| 2026-04-27 18:40 | 29.23133 | 41.59017 | 39830 ft | 423 kts | 270° |
| 2026-04-27 18:40 | 29.23660 | 41.52305 | 39831 ft | 423 kts | 270° |
| 2026-04-27 18:41 | 29.24182 | 41.45607 | 39835 ft | 422 kts | 270° |
| 2026-04-27 18:41 | 29.24701 | 41.38906 | 39837 ft | 423 kts | 270° |
| 2026-04-27 18:42 | 29.25044 | 41.34467 | 39838 ft | 423 kts | 270° |
| 2026-04-27 18:42 | 29.25645 | 41.26613 | 39840 ft | 424 kts | 270° |
| 2026-04-27 18:43 | 29.26156 | 41.19895 | 39841 ft | 423 kts | 270° |
| 2026-04-27 18:43 | 29.26745 | 41.12089 | 39843 ft | 423 kts | 270° |
| 2026-04-27 18:44 | 29.27167 | 41.06463 | 39845 ft | 423 kts | 270° |
| 2026-04-27 18:44 | 29.27668 | 40.99740 | 39846 ft | 424 kts | 270° |
| 2026-04-27 18:45 | 29.28166 | 40.93016 | 39846 ft | 424 kts | 270° |
| 2026-04-27 18:45 | 29.28660 | 40.86282 | 39845 ft | 424 kts | 270° |
| 2026-04-27 18:46 | 29.29152 | 40.79547 | 39846 ft | 425 kts | 270° |
| 2026-04-27 18:46 | 29.29641 | 40.72802 | 39846 ft | 425 kts | 270° |
| 2026-04-27 18:47 | 29.30127 | 40.66049 | 39845 ft | 425 kts | 270° |
| 2026-04-27 18:47 | 29.30610 | 40.59294 | 39846 ft | 426 kts | 270° |
| 2026-04-27 18:48 | 29.31090 | 40.52531 | 39846 ft | 426 kts | 270° |
| 2026-04-27 18:48 | 29.31567 | 40.45757 | 39846 ft | 427 kts | 270° |
| 2026-04-27 18:49 | 29.32041 | 40.38970 | 39846 ft | 427 kts | 270° |
| 2026-04-27 18:49 | 29.32513 | 40.32182 | 39846 ft | 428 kts | 270° |
| 2026-04-27 18:50 | 29.32981 | 40.25386 | 39846 ft | 428 kts | 270° |
| 2026-04-27 18:50 | 29.33446 | 40.18586 | 39846 ft | 429 kts | 270° |
| 2026-04-27 18:51 | 29.33908 | 40.11774 | 39846 ft | 429 kts | 270° |
| 2026-04-27 18:51 | 29.34367 | 40.04964 | 39852 ft | 429 kts | 270° |
| 2026-04-27 18:52 | 29.34822 | 39.98149 | 39852 ft | 429 kts | 270° |
| 2026-04-27 18:53 | 29.35500 | 39.87914 | 39853 ft | 429 kts | 270° |
| 2026-04-27 18:53 | 29.35948 | 39.81091 | 39854 ft | 429 kts | 270° |
| 2026-04-27 18:54 | 29.36391 | 39.74270 | 39855 ft | 429 kts | 270° |
| 2026-04-27 18:54 | 29.36831 | 39.67451 | 39856 ft | 429 kts | 270° |
| 2026-04-27 18:55 | 29.37267 | 39.60641 | 39857 ft | 428 kts | 270° |
| 2026-04-27 18:55 | 29.37700 | 39.53830 | 39859 ft | 428 kts | 270° |
| 2026-04-27 18:56 | 29.38130 | 39.47011 | 39861 ft | 428 kts | 270° |
| 2026-04-27 18:56 | 29.38555 | 39.40206 | 39863 ft | 428 kts | 270° |
| 2026-04-27 18:57 | 29.38977 | 39.33397 | 39865 ft | 427 kts | 270° |
| 2026-04-27 18:57 | 29.39394 | 39.26612 | 39867 ft | 427 kts | 270° |
| 2026-04-27 18:58 | 29.39807 | 39.19824 | 39869 ft | 427 kts | 270° |
| 2026-04-27 18:58 | 29.40218 | 39.13027 | 39872 ft | 427 kts | 270° |
| 2026-04-27 18:59 | 29.40625 | 39.06238 | 39874 ft | 427 kts | 270° |
| 2026-04-27 18:59 | 29.41029 | 38.99441 | 39877 ft | 427 kts | 270° |
| 2026-04-27 19:00 | 29.41428 | 38.92653 | 39879 ft | 427 kts | 270° |
| 2026-04-27 19:00 | 29.41825 | 38.85869 | 39882 ft | 426 kts | 270° |
| 2026-04-27 19:01 | 29.42217 | 38.79083 | 39884 ft | 426 kts | 270° |
| 2026-04-27 19:01 | 29.42606 | 38.72301 | 39887 ft | 426 kts | 270° |
| 2026-04-27 19:02 | 29.42992 | 38.65522 | 39893 ft | 426 kts | 270° |
| 2026-04-27 19:02 | 29.43374 | 38.58732 | 39897 ft | 426 kts | 270° |
| 2026-04-27 19:03 | 29.43753 | 38.51944 | 39900 ft | 427 kts | 270° |
| 2026-04-27 19:03 | 29.44129 | 38.45152 | 39902 ft | 426 kts | 270° |
| 2026-04-27 19:04 | 29.44498 | 38.38410 | 39924 ft | 427 kts | 270° |
| 2026-04-27 19:04 | 29.44867 | 38.31616 | 39929 ft | 427 kts | 270° |
| 2026-04-27 19:05 | 29.45236 | 38.24768 | 39932 ft | 427 kts | 270° |
| 2026-04-27 19:05 | 29.45598 | 38.17972 | 39934 ft | 427 kts | 270° |
| 2026-04-27 19:06 | 29.45957 | 38.11168 | 39937 ft | 428 kts | 270° |
| 2026-04-27 19:06 | 29.46310 | 38.04401 | 39940 ft | 428 kts | 270° |
| 2026-04-27 19:07 | 29.46663 | 37.97587 | 39942 ft | 427 kts | 270° |
| 2026-04-27 19:07 | 29.47011 | 37.90783 | 39944 ft | 427 kts | 270° |
| 2026-04-27 19:08 | 29.47356 | 37.83984 | 39946 ft | 427 kts | 270° |
| 2026-04-27 19:08 | 29.47698 | 37.77178 | 39947 ft | 427 kts | 270° |
| 2026-04-27 19:09 | 29.48036 | 37.70376 | 39949 ft | 427 kts | 270° |
| 2026-04-27 19:09 | 29.48371 | 37.63567 | 39951 ft | 427 kts | 270° |
| 2026-04-27 19:10 | 29.48702 | 37.56770 | 39968 ft | 427 kts | 270° |
| 2026-04-27 19:10 | 29.49029 | 37.49961 | 39969 ft | 427 kts | 270° |
| 2026-04-27 19:11 | 29.49353 | 37.43159 | 39969 ft | 427 kts | 270° |
| 2026-04-27 19:11 | 29.49674 | 37.36357 | 39969 ft | 427 kts | 270° |
| 2026-04-27 19:12 | 29.49991 | 37.29559 | 39969 ft | 426 kts | 270° |
| 2026-04-27 19:12 | 29.50305 | 37.22756 | 39968 ft | 426 kts | 270° |
| 2026-04-27 19:13 | 29.50614 | 37.15965 | 39968 ft | 426 kts | 270° |
| 2026-04-27 19:13 | 29.50921 | 37.09163 | 39968 ft | 426 kts | 270° |
| 2026-04-27 19:14 | 29.51224 | 37.02372 | 39962 ft | 426 kts | 270° |
| 2026-04-27 19:14 | 29.51523 | 36.95583 | 39961 ft | 426 kts | 270° |
| 2026-04-27 19:15 | 29.51818 | 36.88794 | 39960 ft | 426 kts | 270° |
| 2026-04-27 19:15 | 29.52111 | 36.82000 | 39960 ft | 426 kts | 270° |
| 2026-04-27 19:16 | 29.52399 | 36.75220 | 39959 ft | 425 kts | 270° |
| 2026-04-27 19:16 | 29.52685 | 36.68428 | 39959 ft | 426 kts | 270° |
| 2026-04-27 19:17 | 29.52967 | 36.61634 | 39958 ft | 426 kts | 270° |
| 2026-04-27 19:17 | 29.53246 | 36.54834 | 39943 ft | 426 kts | 270° |
| 2026-04-27 19:18 | 29.53520 | 36.48045 | 39942 ft | 426 kts | 270° |
| 2026-04-27 19:18 | 29.53792 | 36.41241 | 39941 ft | 427 kts | 270° |
| 2026-04-27 19:19 | 29.54061 | 36.34432 | 39940 ft | 427 kts | 270° |